Flight Track Log - Related Links

Times and Time Zones

All times are in EDT time to prevent confusion due to time zone crossing. See the DAL268 flight status page for this flight to view local times or setup timezone preferences in your user account.

Time Position Orientation Groundspeed Altitude Reporting Facility
EDT Latitude Longitude Course Direction KTS MPH feet Rate Location/Type
Sat 02:35:23 PM 37.6170 -122.3740 38° Northeast 145 167  Level FlightAware ADS-B
Sat 02:35:44 PM 37.6310 -122.3640 29° Northeast 170 196 500 1,818 Climbing FlightAware ADS-B
Sat 02:35:56 PM 37.6390 -122.3570 35° Northeast 177 204 1,000 2,571 Climbing FlightAware ADS-B
Sat 02:36:12 PM 37.6490 -122.3450 44° Northeast 185 213 1,700 2,000 Climbing FlightAware ADS-B
Sat 02:36:32 PM 37.6620 -122.3280 46° Northeast 217 250 2,200 1,667 Climbing FlightAware ADS-B
Sat 02:36:48 PM 37.6730 -122.3130 47° Northeast 230 265 2,700 1,833 Climbing FlightAware ADS-B
Sat 02:37:08 PM 37.6890 -122.2920 46° Northeast 258 297 3,300 2,400 Climbing FlightAware ADS-B
Sat 02:37:28 PM 37.7060 -122.2690 47° Northeast 268 308 4,300 3,150 Climbing FlightAware ADS-B
Sat 02:37:48 PM 37.7230 -122.2460 47° Northeast 272 313 5,400 3,000 Climbing FlightAware ADS-B
Sat 02:38:04 PM 37.7380 -122.2270 45° Northeast 283 326 6,100 2,897 Climbing FlightAware ADS-B
Sat 02:38:17 PM 37.7470 -122.2110 55° Northeast 280 322 6,800 3,600 Climbing FlightAware ADS-B
Sat 02:38:24 PM 37.7520 -122.2000 60° Northeast 279 321 7,300 3,111 Climbing FlightAware ADS-B
Sat 02:38:44 PM 37.7610 -122.1690 70° East 288 331 8,200 2,833 Climbing FlightAware ADS-B
Sat 02:39:00 PM 37.7690 -122.1440 68° East 291 335 9,000 2,813 Climbing FlightAware ADS-B
Sat 02:39:16 PM 37.7770 -122.1190 68° East 298 343 9,700 2,786 Climbing FlightAware ADS-B
Sat 02:39:28 PM 37.7850 -122.1000 62° Northeast 300 345 10,300 2,087 Climbing FlightAware ADS-B
Sat 02:40:02 PM 37.8190 -122.0550 46° Northeast 330 380 11,300 1,543 Climbing FlightAware ADS-B
Sat 02:40:38 PM 37.8600 -122.0030 45° Northeast 369 425 12,100 1,455 Climbing FlightAware ADS-B
Sat 02:41:08 PM 37.8970 -121.9550 46° Northeast 391 450 12,900 2,123 Climbing FlightAware ADS-B
Sat 02:41:43 PM 37.9410 -121.8990 45° Northeast 397 457 14,400 2,432 Climbing FlightAware ADS-B
Sat 02:42:22 PM 37.9900 -121.8280 49° Northeast 408 470 15,900 2,160 Climbing FlightAware ADS-B
Sat 02:42:58 PM 38.0140 -121.7480 69° East 416 479 17,100 2,057 Climbing FlightAware ADS-B
Sat 02:43:32 PM 38.0300 -121.6680 76° East 425 489 18,300 2,057 Climbing FlightAware ADS-B
Sat 02:44:08 PM 38.0480 -121.5790 76° East 434 499 19,500 2,000 Climbing FlightAware ADS-B
Sat 02:44:44 PM 38.0660 -121.4890 76° East 443 510 20,700 1,941 Climbing FlightAware ADS-B
Sat 02:45:16 PM 38.0830 -121.4070 75° East 448 516 21,700 1,909 Climbing FlightAware ADS-B
Sat 02:45:50 PM 38.0990 -121.3220 77° East 453 521 22,800 1,750 Climbing FlightAware ADS-B
Sat 02:46:28 PM 38.1190 -121.2220 76° East 461 531 23,800 1,543 Climbing FlightAware ADS-B
Sat 02:47:00 PM 38.1360 -121.1370 76° East 468 539 24,600 1,543 Climbing FlightAware ADS-B
Sat 02:47:38 PM 38.1550 -121.0370 76° East 475 547 25,600 1,588 Climbing FlightAware ADS-B
Sat 02:48:08 PM 38.1710 -120.9540 76° East 479 551 26,400 1,412 Climbing FlightAware ADS-B
Sat 02:48:46 PM 38.1920 -120.8490 76° East 487 560 27,200 1,297 Climbing FlightAware ADS-B
Sat 02:49:22 PM 38.2110 -120.7480 77° East 494 568 28,000 1,273 Climbing FlightAware ADS-B
Sat 02:49:52 PM 38.2280 -120.6620 76° East 500 575 28,600 1,371 Climbing FlightAware ADS-B
Sat 02:50:32 PM 38.2490 -120.5500 77° East 497 572 29,600 1,378 Climbing FlightAware ADS-B
Sat 02:51:06 PM 38.2680 -120.4520 76° East 501 577 30,300 1,200 Climbing FlightAware ADS-B
Sat 02:51:37 PM 38.2840 -120.3660 77° East 505 581 30,900 1,324 Climbing FlightAware ADS-B
Sat 02:52:14 PM 38.3050 -120.2570 76° East 504 580 31,800 1,481 Climbing FlightAware ADS-B
Sat 02:52:54 PM 38.3260 -120.1410 77° East 502 578 32,800 1,417 Climbing FlightAware ADS-B
Sat 02:53:26 PM 38.3440 -120.0480 76° East 502 578 33,500 1,235 Climbing FlightAware ADS-B
Sat 02:54:02 PM 38.3620 -119.9470 77° East 503 579 34,200 1,167 Climbing FlightAware ADS-B
Sat 02:54:38 PM 38.3820 -119.8410 76° East 503 579 34,900 1,167 Climbing FlightAware ADS-B
Sat 02:55:14 PM 38.4000 -119.7400 77° East 502 578 35,600 1,059 Climbing FlightAware ADS-B
Sat 02:55:46 PM 38.4170 -119.6500 76° East 502 578 36,100 882 Climbing FlightAware ADS-B
Sat 02:56:22 PM 38.4370 -119.5420 77° East 502 578 36,600 771 Climbing FlightAware ADS-B
Sat 02:56:56 PM 38.4540 -119.4440 77° East 501 577 37,000 343 Climbing FlightAware ADS-B
Sat 02:57:32 PM 38.4720 -119.3430 77° East 495 570 37,000  Level FlightAware ADS-B
Sat 02:58:06 PM 38.4900 -119.2450 77° East 495 570 37,000  Level FlightAware ADS-B
Sat 02:58:38 PM 38.5040 -119.1550 79° East 492 566 37,000  Level FlightAware ADS-B
Sat 02:59:14 PM 38.5160 -119.0500 82° East 491 565 37,000  Level FlightAware ADS-B
Sat 02:59:52 PM 38.5260 -118.9470 83° East 489 563 37,000  Level FlightAware ADS-B
Sat 03:00:22 PM 38.5340 -118.8680 83° East 489 563 37,000  Level FlightAware ADS-B
Sat 03:01:00 PM 38.5450 -118.7520 83° East 490 564 37,000  Level FlightAware ADS-B
Sat 03:01:36 PM 38.5550 -118.6490 83° East 489 563 37,000  Level FlightAware ADS-B
Sat 03:02:12 PM 38.5650 -118.5440 83° East 488 562 37,000  Level FlightAware ADS-B
Sat 03:02:46 PM 38.5750 -118.4430 83° East 488 562 37,000  Level FlightAware ADS-B
Sat 03:03:22 PM 38.5840 -118.3480 83° East 485 558 37,000  Level FlightAware ADS-B
Sat 03:03:56 PM 38.5940 -118.2480 83° East 484 557 37,000  Level FlightAware ADS-B
Sat 03:04:28 PM 38.6020 -118.1550 84° East 483 556 37,000  Level FlightAware ADS-B
Sat 03:05:09 PM 38.6130 -118.0410 83° East 483 556 37,000  Level FlightAware ADS-B
Sat 03:05:47 PM 38.6220 -117.9470 83° East 483 556 37,000  Level FlightAware ADS-B
Sat 03:06:24 PM 38.6300 -117.8570 83° East 483 556 37,000  Level FlightAware ADS-B
Sat 03:07:01 PM 38.6390 -117.7680 83° East 483 556 37,000  Level FlightAware ADS-B
Sat 03:07:37 PM 38.6470 -117.6810 83° East 483 556 37,000  Level FlightAware ADS-B
Sat 03:08:14 PM 38.6560 -117.5920 83° East 483 556 37,000  Level FlightAware ADS-B
Sat 03:08:52 PM 38.6650 -117.5000 83° East 483 556 37,000  Level FlightAware ADS-B
Sat 03:09:38 PM 38.6750 -117.3890 83° East 483 556 37,000  Level FlightAware ADS-B
Sat 03:10:14 PM 38.6840 -117.3020 82° East 483 556 37,000  Level FlightAware ADS-B
Sat 03:10:50 PM 38.6920 -117.2150 83° East 483 556 37,000  Level FlightAware ADS-B
Sat 03:11:26 PM 38.7000 -117.1280 83° East 483 556 37,000  Level FlightAware ADS-B
Sat 03:12:02 PM 38.7090 -117.0410 82° East 483 556 37,000  Level FlightAware ADS-B
Sat 03:12:38 PM 38.7170 -116.9540 83° East 483 556 37,000  Level FlightAware ADS-B
Sat 03:13:15 PM 38.7250 -116.8650 83° East 483 556 37,000  Level FlightAware ADS-B
Sat 03:13:51 PM 38.7340 -116.7780 82° East 483 556 37,000  Level FlightAware ADS-B
Sat 03:14:28 PM 38.7420 -116.6880 83° East 483 556 37,000  Level FlightAware ADS-B
Sat 03:15:04 PM 38.7510 -116.6010 82° East 483 556 37,000  Level FlightAware ADS-B
Sat 03:15:45 PM 38.8264 -116.2900 82° East 473 544 37,000  Level Oakland Center
Sat 03:16:46 PM 38.8492 -116.1239 80° East 473 544 37,000  Level Oakland Center
Sat 03:17:57 PM 38.8786 -115.9244 79° East 473 544 37,000  Level Salt Lake Center
Sat 03:18:59 PM 38.9008 -115.7581 80° East 474 545 37,000  Level Salt Lake Center
Sat 03:20:01 PM 38.9239 -115.5911 80° East 473 544 37,000  Level Salt Lake Center
Sat 03:21:03 PM 38.9469 -115.4222 80° East 478 550 37,000  Level Salt Lake Center
Sat 03:22:05 PM 38.9703 -115.2483 80° East 476 548 37,000  Level Salt Lake Center
Sat 03:23:07 PM 38.9975 -115.0467 80° East 478 550 37,000  Level Salt Lake Center
Sat 03:24:09 PM 39.0208 -114.8767 80° East 482 555 37,000  Level Salt Lake Center
Sat 03:25:11 PM 39.0422 -114.7097 81° East 476 548 37,000  Level Salt Lake Center
Sat 03:26:13 PM 39.0636 -114.5414 81° East 476 548 37,000  Level Salt Lake Center
Sat 03:31:27 PM 39.1720 -113.6490 81° East 474 545 37,000  Level FlightAware ADS-B
Sat 03:32:12 PM 39.1870 -113.5240 81° East 474 545 37,000  Level FlightAware ADS-B
Sat 03:32:53 PM 39.2000 -113.4150 81° East 475 547 37,000  Level FlightAware ADS-B
Sat 03:33:34 PM 39.2120 -113.3160 81° East 475 547 37,000  Level FlightAware ADS-B
Sat 03:34:10 PM 39.2230 -113.2300 81° East 475 547 37,000  Level FlightAware ADS-B
Sat 03:34:47 PM 39.2330 -113.1420 82° East 475 547 37,000  Level FlightAware ADS-B
Sat 03:35:14 PM 39.2817 -113.0260 61° Northeast 481 554 37,000  Level FlightAware ADS-B
Sat 03:35:44 PM 39.3051 -112.9450 70° East 482 555 37,000  Level FlightAware ADS-B
Sat 03:36:17 PM 39.3291 -112.8570 71° East 482 555 37,000  Level FlightAware ADS-B
Sat 03:36:49 PM 39.3529 -112.7690 71° East 483 556 37,000  Level FlightAware ADS-B
Sat 03:37:21 PM 39.3764 -112.6810 71° East 483 556 37,000  Level FlightAware ADS-B
Sat 03:37:52 PM 39.3990 -112.5970 71° East 484 557 37,000  Level FlightAware ADS-B
Sat 03:38:10 PM 39.4155 -112.5480 66° East 487 560 37,000  Level FlightAware ADS-B
Sat 03:38:41 PM 39.4486 -112.4700 61° Northeast 489 563 37,000  Level FlightAware ADS-B
Sat 03:39:13 PM 39.4839 -112.3890 61° Northeast 490 564 37,000  Level FlightAware ADS-B
Sat 03:39:43 PM 39.5176 -112.3120 60° Northeast 490 564 37,000  Level FlightAware ADS-B
Sat 03:40:14 PM 39.5518 -112.2350 60° Northeast 489 563 37,000  Level FlightAware ADS-B
Sat 03:40:55 PM 39.5979 -112.1300 60° Northeast 490 564 37,000  Level FlightAware ADS-B
Sat 03:41:25 PM 39.6318 -112.0540 60° Northeast 490 564 37,000  Level FlightAware ADS-B
Sat 03:42:06 PM 39.6781 -111.9490 60° Northeast 490 564 37,000  Level FlightAware ADS-B
Sat 03:42:38 PM 39.7146 -111.8670 60° Northeast 490 564 37,000  Level FlightAware ADS-B
Sat 03:43:09 PM 39.7501 -111.7880 60° Northeast 490 564 37,000  Level FlightAware ADS-B
Sat 03:43:40 PM 39.7851 -111.7110 59° Northeast 491 565 37,000  Level FlightAware ADS-B
Sat 03:44:15 PM 39.8256 -111.6230 59° Northeast 492 566 37,000  Level FlightAware ADS-B
Sat 03:44:50 PM 39.8672 -111.5330 59° Northeast 493 567 37,000  Level FlightAware ADS-B
Sat 03:45:21 PM 39.9027 -111.4550 59° Northeast 493 567 37,000  Level FlightAware ADS-B
Sat 03:45:52 PM 39.9383 -111.3760 60° Northeast 493 567 37,000  Level FlightAware ADS-B
Sat 03:46:23 PM 39.9747 -111.2950 60° Northeast 494 568 37,000  Level FlightAware ADS-B
Sat 03:46:38 PM 39.9909 -111.2550 62° Northeast 492 566 37,000  Level FlightAware ADS-B
Sat 03:47:12 PM 40.0222 -111.1640 66° East 488 562 37,000  Level FlightAware ADS-B
Sat 03:47:44 PM 40.0448 -111.0770 71° East 487 560 37,000  Level FlightAware ADS-B
Sat 03:48:15 PM 40.0668 -110.9900 72° East 487 560 37,000  Level FlightAware ADS-B
Sat 03:48:48 PM 40.0906 -110.8980 71° East 488 562 37,000  Level FlightAware ADS-B
Sat 03:49:21 PM 40.1149 -110.8050 71° East 488 562 37,000  Level FlightAware ADS-B
Sat 03:50:02 PM 40.1446 -110.6930 71° East 490 564 37,000  Level FlightAware ADS-B
Sat 03:50:45 PM 40.1759 -110.5740 71° East 490 564 37,000  Level FlightAware ADS-B
Sat 03:51:32 PM 40.2080 -110.4520 71° East 490 564 37,000  Level FlightAware ADS-B
Sat 03:52:06 PM 40.2320 -110.3590 71° East 489 563 37,000  Level FlightAware ADS-B
Sat 03:52:41 PM 40.2590 -110.2540 71° East 490 564 37,000  Level FlightAware ADS-B
Sat 03:53:17 PM 40.2850 -110.1540 71° East 490 564 37,000  Level FlightAware ADS-B
Sat 03:53:52 PM 40.3090 -110.0540 73° East 489 563 37,000  Level FlightAware ADS-B
Sat 03:54:28 PM 40.3350 -109.9490 72° East 490 564 37,000  Level FlightAware ADS-B
Sat 03:55:04 PM 40.3590 -109.8500 72° East 489 563 37,000  Level FlightAware ADS-B
Sat 03:55:33 PM 40.3780 -109.7730 72° East 489 563 37,000  Level FlightAware ADS-B
Sat 03:56:09 PM 40.4010 -109.6810 72° East 488 562 37,000  Level FlightAware ADS-B
Sat 03:56:49 PM 40.4320 -109.5530 72° East 488 562 37,000  Level FlightAware ADS-B
Sat 03:57:24 PM 40.4540 -109.4610 73° East 488 562 37,000  Level FlightAware ADS-B
Sat 03:57:54 PM 40.4760 -109.3680 73° East 488 562 37,000  Level FlightAware ADS-B
Sat 03:58:30 PM 40.4970 -109.2820 72° East 488 562 37,000  Level FlightAware ADS-B
Sat 03:59:10 PM 40.5270 -109.1560 73° East 487 560 37,000  Level FlightAware ADS-B
Sat 03:59:50 PM 40.5540 -109.0420 73° East 488 562 37,000  Level FlightAware ADS-B
Sat 04:00:23 PM 40.5760 -108.9490 73° East 487 560 37,000  Level FlightAware ADS-B
Sat 04:00:56 PM 40.5970 -108.8590 73° East 488 562 37,000  Level FlightAware ADS-B
Sat 04:01:31 PM 40.6190 -108.7640 73° East 488 562 37,000  Level FlightAware ADS-B
Sat 04:02:16 PM 40.6500 -108.6310 73° East 489 563 37,000  Level FlightAware ADS-B
Sat 04:02:53 PM 40.6760 -108.5220 73° East 489 563 37,000  Level FlightAware ADS-B
Sat 04:03:26 PM 40.6940 -108.4420 73° East 489 563 37,000  Level FlightAware ADS-B
Sat 04:04:05 PM 40.7230 -108.3180 73° East 489 563 37,000  Level FlightAware ADS-B
Sat 04:04:43 PM 40.7470 -108.2110 73° East 489 563 37,000  Level FlightAware ADS-B
Sat 04:05:17 PM 40.7690 -108.1120 74° East 489 563 37,000  Level FlightAware ADS-B
Sat 04:05:53 PM 40.7930 -108.0100 73° East 490 564 37,000  Level FlightAware ADS-B
Sat 04:06:28 PM 40.8140 -107.9150 74° East 490 564 37,000  Level FlightAware ADS-B
Sat 04:07:03 PM 40.8390 -107.8060 73° East 490 564 37,000  Level FlightAware ADS-B
Sat 04:07:39 PM 40.8620 -107.7030 74° East 490 564 37,000  Level FlightAware ADS-B
Sat 04:08:14 PM 40.8830 -107.6060 74° East 492 566 37,000  Level FlightAware ADS-B
Sat 04:08:47 PM 40.9040 -107.5120 74° East 492 566 37,000  Level FlightAware ADS-B
Sat 04:09:24 PM 40.9270 -107.4070 74° East 493 567 37,000  Level FlightAware ADS-B
Sat 04:10:04 PM 40.9530 -107.2880 74° East 494 568 37,000  Level FlightAware ADS-B
Sat 04:10:41 PM 40.9770 -107.1790 74° East 494 568 37,000  Level FlightAware ADS-B
Sat 04:11:23 PM 41.0030 -107.0580 74° East 495 570 37,000  Level FlightAware ADS-B
Sat 04:11:56 PM 41.0240 -106.9640 73° East 496 571 37,000  Level FlightAware ADS-B
Sat 04:12:28 PM 41.0440 -106.8680 75° East 496 571 37,000  Level FlightAware ADS-B
Sat 04:13:07 PM 41.0680 -106.7540 74° East 497 572 37,000  Level FlightAware ADS-B
Sat 04:13:44 PM 41.0920 -106.6460 74° East 497 572 37,000  Level FlightAware ADS-B
Sat 04:14:15 PM 41.1110 -106.5530 75° East 496 571 37,000  Level FlightAware ADS-B
Sat 04:14:51 PM 41.1330 -106.4480 74° East 498 573 37,000  Level FlightAware ADS-B
Sat 04:15:30 PM 41.1560 -106.3380 74° East 498 573 37,000  Level FlightAware ADS-B
Sat 04:15:59 PM 41.1740 -106.2510 75° East 499 574 37,000  Level FlightAware ADS-B
Sat 04:16:36 PM 41.1970 -106.1410 74° East 499 574 37,000  Level FlightAware ADS-B
Sat 04:17:12 PM 41.2190 -106.0340 75° East 498 573 37,000  Level FlightAware ADS-B
Sat 04:17:46 PM 41.2400 -105.9340 74° East 497 572 37,000  Level FlightAware ADS-B
Sat 04:18:22 PM 41.2610 -105.8290 75° East 494 568 37,000  Level FlightAware ADS-B
Sat 04:18:53 PM 41.2790 -105.7430 74° East 492 566 37,000  Level FlightAware ADS-B
Sat 04:19:33 PM 41.3040 -105.6200 75° East 492 566 37,000  Level FlightAware ADS-B
Sat 04:20:07 PM 41.3230 -105.5230 75° East 492 566 37,000  Level FlightAware ADS-B
Sat 04:20:41 PM 41.3440 -105.4220 74° East 492 566 37,000  Level FlightAware ADS-B
Sat 04:21:17 PM 41.3640 -105.3190 75° East 492 566 37,000  Level FlightAware ADS-B
Sat 04:21:42 PM 41.3793 -105.2430 75° East 493 567 37,000  Level FlightAware ADS-B
Sat 04:22:22 PM 41.4020 -105.1280 75° East 492 566 37,000  Level FlightAware ADS-B
Sat 04:22:52 PM 41.4193 -105.0400 75° East 493 567 37,000  Level FlightAware ADS-B
Sat 04:23:27 PM 41.4394 -104.9370 75° East 493 567 37,000  Level FlightAware ADS-B
Sat 04:23:59 PM 41.4581 -104.8410 75° East 495 570 37,000  Level FlightAware ADS-B
Sat 04:24:30 PM 41.4756 -104.7510 75° East 495 570 37,000  Level FlightAware ADS-B
Sat 04:25:02 PM 41.4935 -104.6580 76° East 496 571 37,000  Level FlightAware ADS-B
Sat 04:25:32 PM 41.5106 -104.5690 76° East 497 572 37,000  Level FlightAware ADS-B
Sat 04:26:02 PM 41.5276 -104.4800 76° East 496 571 37,000  Level FlightAware ADS-B
Sat 04:26:32 PM 41.5448 -104.3900 76° East 497 572 37,000  Level FlightAware ADS-B
Sat 04:27:08 PM 41.5647 -104.2850 76° East 496 571 37,000  Level FlightAware ADS-B
Sat 04:27:39 PM 41.5820 -104.1930 76° East 496 571 37,000  Level FlightAware ADS-B
Sat 04:28:11 PM 41.6001 -104.0960 76° East 496 571 37,000  Level FlightAware ADS-B
Sat 04:28:42 PM 41.6171 -104.0050 76° East 496 571 37,000  Level FlightAware ADS-B
Sat 04:29:12 PM 41.6339 -103.9150 76° East 497 572 37,000  Level FlightAware ADS-B
Sat 04:29:49 PM 41.6537 -103.8070 76° East 497 572 37,000  Level FlightAware ADS-B
Sat 04:30:19 PM 41.6702 -103.7170 76° East 498 573 37,000  Level FlightAware ADS-B
Sat 04:30:49 PM 41.6866 -103.6280 76° East 498 573 37,000  Level FlightAware ADS-B
Sat 04:31:19 PM 41.7031 -103.5370 76° East 498 573 37,000  Level FlightAware ADS-B
Sat 04:31:50 PM 41.7196 -103.4460 76° East 499 574 37,000  Level FlightAware ADS-B
Sat 04:32:20 PM 41.7358 -103.3560 76° East 499 574 37,000  Level FlightAware ADS-B
Sat 04:32:52 PM 41.7529 -103.2600 77° East 499 574 37,000  Level FlightAware ADS-B
Sat 04:33:22 PM 41.7693 -103.1680 77° East 498 573 37,000  Level FlightAware ADS-B
Sat 04:33:54 PM 41.7860 -103.0740 77° East 498 573 37,000  Level FlightAware ADS-B
Sat 04:34:23 PM 41.8002 -102.9870 78° East 498 573 37,000  Level FlightAware ADS-B
Sat 04:34:53 PM 41.8120 -102.8950 80° East 499 574 37,000  Level FlightAware ADS-B
Sat 04:35:25 PM 41.8229 -102.7980 81° East 498 573 37,000  Level FlightAware ADS-B
Sat 04:35:58 PM 41.8341 -102.6960 82° East 499 574 37,000  Level FlightAware ADS-B
Sat 04:36:31 PM 41.8451 -102.5950 82° East 498 573 37,000  Level FlightAware ADS-B
Sat 04:37:02 PM 41.8552 -102.5030 82° East 499 574 37,000  Level FlightAware ADS-B
Sat 04:37:33 PM 41.8655 -102.4080 82° East 499 574 37,000  Level FlightAware ADS-B
Sat 04:38:27 PM 41.8834 -102.2420 82° East 500 575 37,000  Level FlightAware ADS-B
Sat 04:38:58 PM 41.8934 -102.1480 82° East 501 577 37,000  Level FlightAware ADS-B
Sat 04:39:29 PM 41.9033 -102.0530 82° East 501 577 37,000  Level FlightAware ADS-B
Sat 04:39:59 PM 41.9131 -101.9600 82° East 502 578 37,000  Level FlightAware ADS-B
Sat 04:40:50 PM 41.9293 -101.8030 82° East 502 578 37,000  Level FlightAware ADS-B
Sat 04:41:37 PM 41.9419 -101.6853 82° East 502 578 37,000  Level Denver Center
Sat 04:42:39 PM 41.9633 -101.4764 82° East 506 582 37,000  Level Denver Center
Sat 04:43:40 PM 41.9811 -101.2978 82° East 503 579 37,000  Level Denver Center
Sat 04:44:54 PM 41.9972 -101.1192 83° East 503 579 37,000  Level Denver Center
Sat 04:45:56 PM 42.0208 -100.8775 82° East 511 588 37,000  Level Denver Center
Sat 04:46:58 PM 42.0400 -100.6697 83° East 502 578 37,000  Level Denver Center
Sat 04:48:00 PM 42.0561 -100.4889 83° East 506 582 37,000  Level Denver Center
Sat 04:49:02 PM 42.0719 -100.3081 83° East 508 585 37,000  Level Denver Center
Sat 04:50:03 PM 42.0911 -100.0986 83° East 506 582 37,000  Level Denver Center
Sat 04:51:05 PM 42.1064 -99.9164 83° East 510 587 37,000  Level Denver Center
Sat 04:52:07 PM 42.1244 -99.7053 83° East 509 586 37,000  Level Denver Center
Sat 04:53:09 PM 42.1386 -99.5361 84° East 510 587 37,000  Level Denver Center
Sat 04:54:10 PM 42.1539 -99.3467 84° East 507 583 37,000  Level Denver Center
Sat 04:55:12 PM 42.1583 -99.1172 88° East 509 586 37,000  Level Denver Center
Sat 04:56:14 PM 42.1550 -98.9261 91° East 507 583 37,000  Level Denver Center
Sat 04:57:16 PM 42.1531 -98.7361 91° East 507 583 37,000  Level Denver Center
Sat 04:58:17 PM 42.1486 -98.5458 92° East 506 582 37,000  Level Denver Center
Sat 05:04:07 PM 42.1510 -97.4270 92° East 510 587 37,000  Level FlightAware ADS-B
Sat 05:04:42 PM 42.1600 -97.3120 84° East 510 587 37,000  Level FlightAware ADS-B
Sat 05:05:19 PM 42.1690 -97.2000 84° East 513 590 37,000  Level FlightAware ADS-B
Sat 05:05:55 PM 42.1770 -97.0830 85° East 513 590 37,000  Level FlightAware ADS-B
Sat 05:06:30 PM 42.1840 -96.9760 85° East 514 592 37,000  Level FlightAware ADS-B
Sat 05:07:05 PM 42.1910 -96.8690 85° East 514 592 37,000  Level FlightAware ADS-B
Sat 05:07:42 PM 42.1990 -96.7410 85° East 514 592 37,000  Level FlightAware ADS-B
Sat 05:08:14 PM 42.2060 -96.6380 85° East 515 593 37,000  Level FlightAware ADS-B
Sat 05:08:46 PM 42.2130 -96.5340 85° East 515 593 37,000  Level FlightAware ADS-B
Sat 05:09:23 PM 42.2220 -96.4180 84° East 516 594 37,000  Level FlightAware ADS-B
Sat 05:10:11 PM 42.2320 -96.2640 85° East 517 595 37,000  Level FlightAware ADS-B
Sat 05:10:47 PM 42.2400 -96.1490 85° East 518 596 37,000  Level FlightAware ADS-B
Sat 05:11:19 PM 42.2470 -96.0440 85° East 518 596 37,000  Level FlightAware ADS-B
Sat 05:11:55 PM 42.2550 -95.9340 84° East 519 597 37,000  Level FlightAware ADS-B
Sat 05:12:31 PM 42.2620 -95.8270 85° East 519 597 37,000  Level FlightAware ADS-B
Sat 05:13:07 PM 42.2700 -95.7020 85° East 518 596 37,000  Level FlightAware ADS-B
Sat 05:13:42 PM 42.2770 -95.5880 85° East 517 595 37,000  Level FlightAware ADS-B
Sat 05:14:15 PM 42.2830 -95.4840 86° East 517 595 37,000  Level FlightAware ADS-B
Sat 05:14:51 PM 42.2910 -95.3640 85° East 518 596 37,000  Level FlightAware ADS-B
Sat 05:15:27 PM 42.2980 -95.2470 85° East 518 596 37,000  Level FlightAware ADS-B
Sat 05:15:57 PM 42.3030 -95.1560 86° East 518 596 37,000  Level FlightAware ADS-B
Sat 05:16:31 PM 42.3100 -95.0440 85° East 517 595 37,000  Level FlightAware ADS-B
Sat 05:17:13 PM 42.3170 -94.9080 86° East 517 595 37,000  Level FlightAware ADS-B
Sat 05:17:45 PM 42.3230 -94.8040 86° East 517 595 37,000  Level FlightAware ADS-B
Sat 05:18:19 PM 42.3290 -94.6950 86° East 517 595 37,000  Level FlightAware ADS-B
Sat 05:18:57 PM 42.3360 -94.5720 86° East 517 595 37,000  Level FlightAware ADS-B
Sat 05:19:37 PM 42.3430 -94.4450 86° East 516 594 37,000  Level FlightAware ADS-B
Sat 05:20:13 PM 42.3490 -94.3310 86° East 515 593 37,000  Level FlightAware ADS-B
Sat 05:20:47 PM 42.3540 -94.2200 86° East 515 593 37,000  Level FlightAware ADS-B
Sat 05:21:23 PM 42.3600 -94.1070 86° East 515 593 37,000  Level FlightAware ADS-B
Sat 05:21:56 PM 42.3650 -94.0020 86° East 515 593 37,000  Level FlightAware ADS-B
Sat 05:22:31 PM 42.3710 -93.8860 86° East 514 592 37,000  Level FlightAware ADS-B
Sat 05:23:09 PM 42.3770 -93.7650 86° East 514 592 37,000  Level FlightAware ADS-B
Sat 05:23:45 PM 42.3820 -93.6490 87° East 514 592 37,000  Level FlightAware ADS-B
Sat 05:24:16 PM 42.3860 -93.5520 87° East 515 593 37,000  Level FlightAware ADS-B
Sat 05:24:55 PM 42.3920 -93.4240 86° East 517 595 37,000  Level FlightAware ADS-B
Sat 05:25:29 PM 42.3970 -93.3150 86° East 517 595 37,000  Level FlightAware ADS-B
Sat 05:26:04 PM 42.4010 -93.2080 87° East 517 595 37,000  Level FlightAware ADS-B
Sat 05:26:35 PM 42.4060 -93.1020 86° East 517 595 37,000  Level FlightAware ADS-B
Sat 05:27:12 PM 42.4100 -92.9860 87° East 517 595 37,000  Level FlightAware ADS-B
Sat 05:27:47 PM 42.4150 -92.8710 87° East 517 595 37,000  Level FlightAware ADS-B
Sat 05:28:23 PM 42.4190 -92.7550 87° East 517 595 37,000  Level FlightAware ADS-B
Sat 05:28:59 PM 42.4230 -92.6390 87° East 517 595 37,000  Level FlightAware ADS-B
Sat 05:29:34 PM 42.4280 -92.5280 86° East 517 595 37,000  Level FlightAware ADS-B
Sat 05:30:04 PM 42.4310 -92.4320 88° East 518 596 37,000  Level FlightAware ADS-B
Sat 05:30:39 PM 42.4350 -92.3170 87° East 518 596 37,000  Level FlightAware ADS-B
Sat 05:31:17 PM 42.4390 -92.1940 87° East 518 596 37,000  Level FlightAware ADS-B
Sat 05:31:53 PM 42.4430 -92.0760 87° East 518 596 37,000  Level FlightAware ADS-B
Sat 05:32:29 PM 42.4460 -91.9580 88° East 519 597 37,000  Level FlightAware ADS-B
Sat 05:33:05 PM 42.4500 -91.8420 87° East 518 596 37,000  Level FlightAware ADS-B
Sat 05:33:37 PM 42.4530 -91.7420 88° East 519 597 37,000  Level FlightAware ADS-B
Sat 05:34:13 PM 42.4560 -91.6250 88° East 519 597 37,000  Level FlightAware ADS-B
Sat 05:34:49 PM 42.4590 -91.5100 88° East 519 597 37,000  Level FlightAware ADS-B
Sat 05:35:21 PM 42.4620 -91.4050 88° East 518 596 37,000  Level FlightAware ADS-B
Sat 05:35:55 PM 42.4650 -91.2910 88° East 518 596 37,000  Level FlightAware ADS-B
Sat 05:36:34 PM 42.4680 -91.1690 88° East 517 595 37,000  Level FlightAware ADS-B
Sat 05:37:06 PM 42.4710 -91.0650 88° East 518 596 37,000  Level FlightAware ADS-B
Sat 05:37:42 PM 42.4730 -90.9450 89° East 518 596 37,000  Level FlightAware ADS-B
Sat 05:38:17 PM 42.4760 -90.8340 88° East 518 596 37,000  Level FlightAware ADS-B
Sat 05:38:54 PM 42.4780 -90.7180 89° East 517 595 37,000  Level FlightAware ADS-B
Sat 05:39:26 PM 42.4800 -90.6130 88° East 517 595 37,000  Level FlightAware ADS-B
Sat 05:40:03 PM 42.4820 -90.4910 89° East 517 595 37,000  Level FlightAware ADS-B
Sat 05:40:39 PM 42.4840 -90.3800 89° East 516 594 37,000  Level FlightAware ADS-B
Sat 05:41:15 PM 42.4860 -90.2670 89° East 515 593 37,000  Level FlightAware ADS-B
Sat 05:41:47 PM 42.4880 -90.1610 88° East 514 592 37,000  Level FlightAware ADS-B
Sat 05:42:21 PM 42.4890 -90.0530 89° East 514 592 37,000  Level FlightAware ADS-B
Sat 05:42:56 PM 42.4910 -89.9380 89° East 513 590 37,000  Level FlightAware ADS-B
Sat 05:43:32 PM 42.4920 -89.8210 89° East 513 590 37,000  Level FlightAware ADS-B
Sat 05:44:09 PM 42.4940 -89.7000 89° East 512 589 37,000  Level FlightAware ADS-B
Sat 05:44:41 PM 42.4950 -89.5980 89° East 513 590 37,000  Level FlightAware ADS-B
Sat 05:45:17 PM 42.4960 -89.4830 89° East 514 592 37,000  Level FlightAware ADS-B
Sat 05:45:54 PM 42.4970 -89.3650 89° East 515 593 37,000  Level FlightAware ADS-B
Sat 05:46:27 PM 42.4980 -89.2590 89° East 516 594 37,000  Level FlightAware ADS-B
Sat 05:47:00 PM 42.4990 -89.1530 89° East 517 595 37,000  Level FlightAware ADS-B
Sat 05:47:40 PM 42.4990 -89.0240 90° East 518 596 37,000  Level FlightAware ADS-B
Sat 05:48:11 PM 42.5000 -88.9220 89° East 519 597 37,000  Level FlightAware ADS-B
Sat 05:48:48 PM 42.5000 -88.8040 90° East 519 597 37,000  Level FlightAware ADS-B
Sat 05:49:21 PM 42.5000 -88.6940 90° East 519 597 37,000  Level FlightAware ADS-B
Sat 05:49:58 PM 42.5010 -88.5770 89° East 520 598 37,000  Level FlightAware ADS-B
Sat 05:50:33 PM 42.5010 -88.4610 90° East 520 598 37,000  Level FlightAware ADS-B
Sat 05:51:09 PM 42.5010 -88.3440 90° East 519 597 37,000  Level FlightAware ADS-B
Sat 05:51:42 PM 42.5010 -88.2420 90° East 519 597 37,000  Level FlightAware ADS-B
Sat 05:52:19 PM 42.5000 -88.1190 91° East 518 596 37,000  Level FlightAware ADS-B
Sat 05:52:51 PM 42.5000 -88.0160 90° East 518 596 37,000  Level FlightAware ADS-B
Sat 05:53:27 PM 42.5000 -87.8970 90° East 518 596 37,000  Level FlightAware ADS-B
Sat 05:54:04 PM 42.5000 -87.7800 90° East 517 595 37,000  Level FlightAware ADS-B
Sat 05:54:41 PM 42.5000 -87.6580 90° East 516 594 37,000  Level FlightAware ADS-B
Sat 05:55:14 PM 42.4990 -87.5540 91° East 517 595 37,000  Level FlightAware ADS-B
Sat 05:55:49 PM 42.4990 -87.4460 90° East 516 594 37,000  Level FlightAware ADS-B
Sat 05:56:19 PM 42.4980 -87.3510 91° East 516 594 37,000  Level FlightAware ADS-B
Sat 05:57:06 PM 42.4970 -87.1890 90° East 516 594 37,000  Level FlightAware ADS-B
Sat 05:57:42 PM 42.4970 -87.0780 90° East 516 594 37,000  Level FlightAware ADS-B
Sat 05:58:18 PM 42.4960 -86.9600 91° East 517 595 37,000  Level FlightAware ADS-B
Sat 05:58:50 PM 42.4950 -86.8600 91° East 518 596 37,000  Level FlightAware ADS-B
Sat 05:59:28 PM 42.4930 -86.7340 91° East 519 597 37,000  Level FlightAware ADS-B
Sat 06:00:00 PM 42.4920 -86.6320 91° East 519 597 37,000  Level FlightAware ADS-B
Sat 06:00:32 PM 42.4910 -86.5290 91° East 520 598 37,000  Level FlightAware ADS-B
Sat 06:01:10 PM 42.4890 -86.4070 91° East 521 600 37,000  Level FlightAware ADS-B
Sat 06:01:48 PM 42.4880 -86.2820 91° East 521 600 37,000  Level FlightAware ADS-B
Sat 06:02:16 PM 42.4860 -86.1930 92° East 521 600 37,000  Level FlightAware ADS-B
Sat 06:02:56 PM 42.4840 -86.0610 91° East 522 601 37,000  Level FlightAware ADS-B
Sat 06:03:32 PM 42.4820 -85.9450 91° East 522 601 37,000  Level FlightAware ADS-B
Sat 06:04:04 PM 42.4800 -85.8380 91° East 522 601 37,000  Level FlightAware ADS-B
Sat 06:04:38 PM 42.4780 -85.7310 91° East 522 601 37,000  Level FlightAware ADS-B
Sat 06:05:16 PM 42.4760 -85.6000 91° East 523 602 37,000  Level FlightAware ADS-B
Sat 06:05:46 PM 42.4730 -85.5000 92° East 524 603 37,000  Level FlightAware ADS-B
Sat 06:06:19 PM 42.4710 -85.3940 91° East 525 604 37,000  Level FlightAware ADS-B
Sat 06:06:54 PM 42.4680 -85.2800 92° East 526 605 37,000  Level FlightAware ADS-B
Sat 06:07:27 PM 42.4660 -85.1720 91° East 528 608 37,000  Level FlightAware ADS-B
Sat 06:08:01 PM 42.4630 -85.0650 92° East 529 609 37,000  Level FlightAware ADS-B
Sat 06:08:43 PM 42.4600 -84.9210 92° East 530 610 37,000  Level FlightAware ADS-B
Sat 06:09:17 PM 42.4570 -84.8130 92° East 530 610 37,000  Level FlightAware ADS-B
Sat 06:09:55 PM 42.4520 -84.6800 93° East 531 611 37,000  Level FlightAware ADS-B
Sat 06:10:33 PM 42.4440 -84.5550 95° East 531 611 37,000  Level FlightAware ADS-B
Sat 06:11:04 PM 42.4380 -84.4620 95° East 532 612 37,000  Level FlightAware ADS-B
Sat 06:11:39 PM 42.4310 -84.3390 94° East 533 613 37,000  Level FlightAware ADS-B
Sat 06:12:14 PM 42.4250 -84.2370 95° East 534 615 37,000  Level FlightAware ADS-B
Sat 06:12:47 PM 42.4170 -84.1090 95° East 535 616 37,000  Level FlightAware ADS-B
Sat 06:13:27 PM 42.4090 -83.9770 95° East 535 616 37,000  Level FlightAware ADS-B
Sat 06:13:59 PM 42.4030 -83.8700 94° East 537 618 37,000  Level FlightAware ADS-B
Sat 06:14:37 PM 42.3950 -83.7420 95° East 537 618 37,000  Level FlightAware ADS-B
Sat 06:15:11 PM 42.3870 -83.6290 95° East 538 619 37,000  Level FlightAware ADS-B
Sat 06:15:44 PM 42.3810 -83.5220 94° East 539 620 37,000  Level FlightAware ADS-B
Sat 06:16:20 PM 42.3720 -83.3990 96° East 539 620 37,000  Level FlightAware ADS-B
Sat 06:16:56 PM 42.3640 -83.2780 95° East 537 618 37,000  Level FlightAware ADS-B
Sat 06:17:33 PM 42.3560 -83.1580 95° East 536 617 37,000  Level FlightAware ADS-B
Sat 06:18:04 PM 42.3490 -83.0510 95° East 535 616 37,000  Level FlightAware ADS-B
Sat 06:18:40 PM 42.3400 -82.9340 96° East 534 615 37,000  Level FlightAware ADS-B
Sat 06:19:12 PM 42.3330 -82.8270 95° East 532 612 37,000  Level FlightAware ADS-B
Sat 06:19:50 PM 42.3240 -82.7050 96° East 531 611 37,000  Level FlightAware ADS-B
Sat 06:20:26 PM 42.3150 -82.5840 96° East 532 612 37,000  Level FlightAware ADS-B
Sat 06:21:02 PM 42.3060 -82.4620 96° East 531 611 37,000  Level FlightAware ADS-B
Sat 06:21:34 PM 42.2990 -82.3640 95° East 531 611 37,000  Level FlightAware ADS-B
Sat 06:22:06 PM 42.2900 -82.2550 96° East 532 612 37,000  Level FlightAware ADS-B
Sat 06:22:47 PM 42.2800 -82.1210 96° East 534 615 37,000  Level FlightAware ADS-B
Sat 06:23:28 PM 42.2700 -82.0000 96° East 536 617 37,000  Level FlightAware ADS-B
Sat 06:24:04 PM 42.2600 -81.8650 96° East 537 618 37,000  Level FlightAware ADS-B
Sat 06:24:37 PM 42.2510 -81.7540 96° East 538 619 37,000  Level FlightAware ADS-B
Sat 06:25:11 PM 42.2420 -81.6420 96° East 540 621 37,000  Level FlightAware ADS-B
Sat 06:25:49 PM 42.2310 -81.5130 97° East 541 623 37,000  Level FlightAware ADS-B
Sat 06:26:21 PM 42.2220 -81.4070 97° East 542 624 37,000  Level FlightAware ADS-B
Sat 06:26:57 PM 42.2110 -81.2840 97° East 543 625 37,000  Level FlightAware ADS-B
Sat 06:27:29 PM 42.2020 -81.1770 96° East 544 626 37,000  Level FlightAware ADS-B
Sat 06:28:09 PM 42.1910 -81.0420 96° East 544 626 37,000  Level FlightAware ADS-B
Sat 06:28:43 PM 42.1810 -80.9290 97° East 545 627 37,000  Level FlightAware ADS-B
Sat 06:29:19 PM 42.1700 -80.8070 97° East 546 628 37,000  Level FlightAware ADS-B
Sat 06:29:51 PM 42.1600 -80.7040 97° East 546 628 37,000  Level FlightAware ADS-B
Sat 06:30:25 PM 42.1500 -80.5910 97° East 548 631 37,000  Level FlightAware ADS-B
Sat 06:31:00 PM 42.1390 -80.4680 97° East 547 629 37,000  Level FlightAware ADS-B
Sat 06:31:34 PM 42.1280 -80.3490 97° East 548 631 37,000  Level FlightAware ADS-B
Sat 06:32:10 PM 42.1160 -80.2310 98° East 549 632 37,000  Level FlightAware ADS-B
Sat 06:32:42 PM 42.1060 -80.1230 97° East 549 632 37,000  Level FlightAware ADS-B
Sat 06:33:24 PM 42.0920 -79.9770 97° East 550 633 37,000  Level FlightAware ADS-B
Sat 06:33:58 PM 42.0810 -79.8630 97° East 552 635 37,000  Level FlightAware ADS-B
Sat 06:34:32 PM 42.0690 -79.7450 98° East 553 636 37,000  Level FlightAware ADS-B
Sat 06:35:08 PM 42.0570 -79.6220 97° East 554 638 37,000  Level FlightAware ADS-B
Sat 06:35:44 PM 42.0450 -79.5010 98° East 556 640 37,000  Level FlightAware ADS-B
Sat 06:36:16 PM 42.0340 -79.3920 98° East 556 640 37,000  Level FlightAware ADS-B
Sat 06:36:54 PM 42.0200 -79.2600 98° East 557 641 37,000  Level FlightAware ADS-B
Sat 06:37:30 PM 42.0080 -79.1430 98° East 557 641 37,000  Level FlightAware ADS-B
Sat 06:38:02 PM 41.9960 -79.0330 98° East 558 642 37,000  Level FlightAware ADS-B
Sat 06:38:38 PM 41.9830 -78.9110 98° East 558 642 37,000  Level FlightAware ADS-B
Sat 06:39:14 PM 41.9700 -78.7830 98° East 559 643 37,000  Level FlightAware ADS-B
Sat 06:39:50 PM 41.9560 -78.6580 99° East 559 643 37,000  Level FlightAware ADS-B
Sat 06:40:24 PM 41.9430 -78.5410 98° East 560 644 37,000  Level FlightAware ADS-B
Sat 06:40:56 PM 41.9310 -78.4310 98° East 561 646 37,000  Level FlightAware ADS-B
Sat 06:41:33 PM 41.9170 -78.3040 98° East 561 646 37,000  Level FlightAware ADS-B
Sat 06:42:05 PM 41.9050 -78.1990 99° East 561 646 37,000  Level FlightAware ADS-B
Sat 06:42:41 PM 41.8910 -78.0750 99° East 560 644 37,000  Level FlightAware ADS-B
Sat 06:43:17 PM 41.8760 -77.9500 99° East 560 644 37,000  Level FlightAware ADS-B
Sat 06:43:53 PM 41.8570 -77.8280 102° East 555 639 37,000  Level FlightAware ADS-B
Sat 06:44:29 PM 41.8280 -77.7100 108° East 552 635 37,000  Level FlightAware ADS-B
Sat 06:45:01 PM 41.8020 -77.6110 109° East 551 634 37,000  Level FlightAware ADS-B
Sat 06:45:37 PM 41.7700 -77.4910 110° East 550 633 37,000  Level FlightAware ADS-B
Sat 06:46:13 PM 41.7390 -77.3760 110° East 550 633 37,000  Level FlightAware ADS-B
Sat 06:46:45 PM 41.7110 -77.2720 110° East 549 632 37,000  Level FlightAware ADS-B
Sat 06:47:22 PM 41.6810 -77.1610 110° East 549 632 37,000  Level FlightAware ADS-B
Sat 06:48:05 PM 41.6440 -77.0240 110° East 551 634 37,000 -141 Level FlightAware ADS-B
Sat 06:48:47 PM 41.6065 -76.8850 110° East 550 633 36,800 -750 Descending FlightAware ADS-B
Sat 06:49:17 PM 41.5800 -76.7884 110° East 555 639 36,100 -1,400 Descending FlightAware ADS-B
Sat 06:49:47 PM 41.5529 -76.6899 110° East 561 646 35,400 -1,355 Descending FlightAware ADS-B
Sat 06:50:19 PM 41.5246 -76.5869 110° East 563 648 34,700 -1,238 Descending FlightAware ADS-B
Sat 06:50:50 PM 41.4966 -76.4859 110° East 568 654 34,100 -1,082 Descending FlightAware ADS-B
Sat 06:51:20 PM 41.4693 -76.3872 110° East 568 654 33,600 -984 Descending FlightAware ADS-B
Sat 06:51:51 PM 41.4418 -76.2881 110° East 563 648 33,100 -1,279 Descending FlightAware ADS-B
Sat 06:52:21 PM 41.4147 -76.1906 110° East 557 641 32,300 -1,500 Descending FlightAware ADS-B
Sat 06:52:51 PM 41.3881 -76.0953 110° East 551 634 31,600 -1,600 Descending FlightAware ADS-B
Sat 06:53:21 PM 41.3613 -76.0001 111° Southeast 543 625 30,700 -1,645 Descending FlightAware ADS-B
Sat 06:53:53 PM 41.3333 -75.9013 111° Southeast 544 626 29,900 -1,333 Descending FlightAware ADS-B
Sat 06:54:24 PM 41.3057 -75.8044 111° Southeast 539 620 29,300 -1,574 Descending FlightAware ADS-B
Sat 06:54:54 PM 41.2785 -75.7109 111° Southeast 532 612 28,300 -2,164 Descending FlightAware ADS-B
Sat 06:55:25 PM 41.2499 -75.6202 113° Southeast 521 600 27,100 -2,361 Descending FlightAware ADS-B
Sat 06:55:55 PM 41.2212 -75.5335 114° Southeast 510 587 25,900 -2,400 Descending FlightAware ADS-B
Sat 06:56:25 PM 41.1925 -75.4478 114° Southeast 499 574 24,700 -2,381 Descending FlightAware ADS-B
Sat 06:56:58 PM 41.1621 -75.3575 114° Southeast 490 564 23,400 -1,569 Descending FlightAware ADS-B
Sat 06:57:30 PM 41.1327 -75.2708 114° Southeast 491 565 23,000 -387 Descending FlightAware ADS-B
Sat 06:58:00 PM 41.1042 -75.1868 114° Southeast 491 565 23,000  Level FlightAware ADS-B
Sat 06:58:32 PM 41.0745 -75.0991 114° Southeast 490 564 23,000  Level FlightAware ADS-B
Sat 06:59:04 PM 41.0451 -75.0127 114° Southeast 488 562 23,000  Level FlightAware ADS-B
Sat 06:59:35 PM 41.0161 -74.9276 114° Southeast 490 564 23,000  Level FlightAware ADS-B
Sat 06:59:41 PM 41.0114 -74.9124 112° Southeast 490 564 23,000  Level FlightAware ADS-B
Sat 06:59:49 PM 41.0050 -74.8891 110° East 490 564 23,000  Level FlightAware ADS-B
Sat 07:00:03 PM 40.9959 -74.8482 106° East 491 565 23,000 -133 Level FlightAware ADS-B
Sat 07:00:34 PM 40.9833 -74.7590 101° East 489 563 22,900 -1,574 Descending FlightAware ADS-B
Sat 07:01:04 PM 40.9734 -74.6688 98° East 495 570 21,400 -2,400 Descending FlightAware ADS-B
Sat 07:01:34 PM 40.9641 -74.5797 98° East 476 548 20,500 -1,082 Descending FlightAware ADS-B
Sat 07:02:05 PM 40.9551 -74.4950 98° East 446 513 20,300 -787 Descending FlightAware ADS-B
Sat 07:02:35 PM 40.9466 -74.4154 98° East 427 491 19,700 -1,100 Descending FlightAware ADS-B
Sat 07:03:05 PM 40.9383 -74.3404 98° East 405 466 19,200 -700 Descending FlightAware ADS-B
Sat 07:03:35 PM 40.9302 -74.2685 98° East 385 443 19,000 -316 Descending FlightAware ADS-B
Sat 07:03:43 PM 40.9279 -74.2497 99° East 380 437 19,000  Level FlightAware ADS-B
Sat 07:03:54 PM 40.9231 -74.2256 105° East 377 434 19,000  Level FlightAware ADS-B
Sat 07:04:01 PM 40.9185 -74.2117 114° Southeast 375 432 19,000  Level FlightAware ADS-B
Sat 07:04:09 PM 40.9114 -74.1961 121° Southeast 373 429 19,000  Level FlightAware ADS-B
Sat 07:04:17 PM 40.9027 -74.1821 129° Southeast 370 426 19,000  Level FlightAware ADS-B
Sat 07:04:23 PM 40.8953 -74.1728 136° Southeast 368 423 19,000 -600 Level FlightAware ADS-B
Sat 07:04:27 PM 40.8901 -74.1670 140° Southeast 366 421 18,900 -1,200 Descending FlightAware ADS-B
Sat 07:04:48 PM 40.8617 -74.1384 143° Southeast 363 418 18,500 -1,395 Descending FlightAware ADS-B
Sat 07:05:10 PM 40.8308 -74.1144 150° Southeast 357 411 17,900 -1,565 Descending FlightAware ADS-B
Sat 07:05:34 PM 40.7953 -74.0897 152° Southeast 355 409 17,300 -1,400 Descending FlightAware ADS-B
Sat 07:05:40 PM 40.7862 -74.0834 152° Southeast 352 405 17,200 -1,400 Descending FlightAware ADS-B
Sat 07:06:04 PM 40.7520 -74.0599 152° Southeast 346 398 16,600 -1,548 Descending FlightAware ADS-B
Sat 07:06:11 PM 40.7423 -74.0532 152° Southeast 343 395 16,400 -2,057 Descending FlightAware ADS-B
Sat 07:06:39 PM 40.7031 -74.0260 152° Southeast 339 390 15,400 -2,063 Descending FlightAware ADS-B
Sat 07:06:43 PM 40.6983 -74.0226 152° Southeast 338 389 15,300 -2,229 Descending FlightAware ADS-B
Sat 07:07:14 PM 40.6560 -73.9938 153° Southeast 332 382 14,100 -1,875 Descending FlightAware ADS-B
Sat 07:07:47 PM 40.6114 -73.9633 153° Southeast 326 375 13,300 -1,143 Descending FlightAware ADS-B
Sat 07:08:17 PM 40.5708 -73.9353 152° Southeast 325 374 12,900 -984 Descending FlightAware ADS-B
Sat 07:08:48 PM 40.5308 -73.9078 152° Southeast 318 366 12,300 -1,667 Descending FlightAware ADS-B
Sat 07:09:11 PM 40.5005 -73.8857 151° Southeast 315 362 11,400 -2,357 Descending FlightAware ADS-B
Sat 07:09:16 PM 40.4956 -73.8807 142° Southeast 316 364 11,200 -2,250 Descending FlightAware ADS-B
Sat 07:09:27 PM 40.4839 -73.8665 137° Southeast 316 364 10,800 -2,400 Descending FlightAware ADS-B
Sat 07:09:46 PM 40.4637 -73.8390 134° Southeast 315 362 10,000 -2,400 Descending FlightAware ADS-B
Sat 07:10:02 PM 40.4482 -73.8176 134° Southeast 311 358 9,400 -2,438 Descending FlightAware ADS-B
Sat 07:10:18 PM 40.4320 -73.7951 133° Southeast 308 354 8,700 -2,250 Descending FlightAware ADS-B
Sat 07:10:34 PM 40.4172 -73.7744 133° Southeast 306 352 8,200 -2,222 Descending FlightAware ADS-B
Sat 07:10:45 PM 40.4066 -73.7589 132° Southeast 306 352 7,700 -2,400 Descending FlightAware ADS-B
Sat 07:10:49 PM 40.4034 -73.7527 124° Southeast 306 352 7,600 -1,800 Descending FlightAware ADS-B
Sat 07:10:55 PM 40.3995 -73.7433 119° Southeast 306 352 7,400 -2,500 Descending FlightAware ADS-B
Sat 07:11:01 PM 40.3969 -73.7331 109° East 306 352 7,100 -2,308 Descending FlightAware ADS-B
Sat 07:11:08 PM 40.3947 -73.7198 102° East 303 349 6,900 -2,250 Descending FlightAware ADS-B
Sat 07:11:17 PM 40.3928 -73.7034 99° East 300 345 6,500 -2,500 Descending FlightAware ADS-B
Sat 07:11:20 PM 40.3925 -73.6978 94° East 299 344 6,400 -2,182 Descending FlightAware ADS-B
Sat 07:11:28 PM 40.3928 -73.6846 88° East 296 341 6,100 -2,250 Descending FlightAware ADS-B
Sat 07:11:44 PM 40.3956 -73.6553 83° East 291 335 5,500 -1,900 Descending FlightAware ADS-B
Sat 07:12:28 PM 40.4050 -73.5810 81° East 280 322 4,200 -1,731 Descending FlightAware ADS-B
Sat 07:12:36 PM 40.4090 -73.5690 66° East 275 316 4,000 -1,125 Descending FlightAware ADS-B
Sat 07:12:44 PM 40.4140 -73.5590 57° Northeast 271 312 3,900 -375 Descending FlightAware ADS-B
Sat 07:12:52 PM 40.4210 -73.5510 41° Northeast 267 307 3,900  Level FlightAware ADS-B
Sat 07:13:12 PM 40.4420 -73.5330 33° Northeast 266 306 3,900  Level FlightAware ADS-B
Sat 07:13:32 PM 40.4640 -73.5180 27° Northeast 266 306 3,900  Level FlightAware ADS-B
Sat 07:13:52 PM 40.4860 -73.5010 30° Northeast 264 304 3,900  Level FlightAware ADS-B
Sat 07:14:13 PM 40.5090 -73.4830 31° Northeast 263 303 3,900  Level FlightAware ADS-B
Sat 07:14:28 PM 40.5240 -73.4740 25° Northeast 260 299 3,900  Level FlightAware ADS-B
Sat 07:14:32 PM 40.5290 -73.4720 17° North 257 296 3,900 429 Level FlightAware ADS-B
Sat 07:14:42 PM 40.5410 -73.4720 360° North 254 292 4,000  Climbing FlightAware ADS-B
Sat 07:15:02 PM 40.5640 -73.4780 349° North 255 293 3,900 -150 Descending FlightAware ADS-B
Sat 07:15:22 PM 40.5880 -73.4840 349° North 257 296 3,900  Level FlightAware ADS-B
Sat 07:15:46 PM 40.6150 -73.4910 349° North 256 295 3,900  Level FlightAware ADS-B
Sat 07:16:05 PM 40.6380 -73.4970 349° North 255 293 3,900  Level FlightAware ADS-B
Sat 07:16:25 PM 40.6610 -73.5040 347° North 259 298 3,900  Level FlightAware ADS-B
Sat 07:16:42 PM 40.6820 -73.5090 350° North 261 300 3,900 -474 Level FlightAware ADS-B
Sat 07:17:03 PM 40.7060 -73.5150 349° North 256 295 3,600 -938 Descending FlightAware ADS-B
Sat 07:17:14 PM 40.7180 -73.5180 349° North 254 292 3,400 -1,548 Descending FlightAware ADS-B
Sat 07:17:34 PM 40.7410 -73.5230 351° North 251 289 2,800 -1,500 Descending FlightAware ADS-B
Sat 07:17:50 PM 40.7590 -73.5290 346° North 248 285 2,500 -1,500 Descending FlightAware ADS-B
Sat 07:17:58 PM 40.7680 -73.5340 337° Northwest 245 282 2,200 -1,412 Descending FlightAware ADS-B
Sat 07:18:07 PM 40.7760 -73.5430 320° Northwest 243 280 2,100 -857 Descending FlightAware ADS-B
Sat 07:18:19 PM 40.7820 -73.5580 298° West 245 282 1,900 -600 Descending FlightAware ADS-B
Sat 07:18:27 PM 40.7850 -73.5690 290° West 240 276 1,900  Level FlightAware ADS-B
Sat 07:18:34 PM 40.7860 -73.5780 278° West 236 272 1,900  Level FlightAware ADS-B
Sat 07:18:54 PM 40.7800 -73.6040 253° West 218 251 1,900  Level FlightAware ADS-B
Sat 07:19:14 PM 40.7700 -73.6260 239° Southwest 204 235 1,900  Level FlightAware ADS-B
Sat 07:19:34 PM 40.7580 -73.6440 229° Southwest 189 217 1,900  Level FlightAware ADS-B
Sat 07:19:58 PM 40.7450 -73.6650 231° Southwest 184 212 1,900  Level FlightAware ADS-B
Sat 07:20:08 PM 40.7390 -73.6740 229° Southwest 184 212 1,900 -353 Level FlightAware ADS-B
Sat 07:20:32 PM 40.7260 -73.6920 226° Southwest 171 197 1,700 -545 Descending FlightAware ADS-B
Sat 07:20:52 PM 40.7130 -73.7020 210° Southwest 157 181 1,500 -750 Descending FlightAware ADS-B
Sat 07:21:12 PM 40.7010 -73.7120 212° Southwest 141 162 1,200 -682 Descending FlightAware ADS-B
Sat 07:21:36 PM 40.6870 -73.7220 208° Southwest 136 157 1,000 -682 Descending FlightAware ADS-B
Sat 07:21:56 PM 40.6770 -73.7300 211° Southwest 135 155 700 -750 Descending FlightAware ADS-B
Sat 07:22:16 PM 40.6660 -73.7390 212° Southwest 139 160 500 -750 Descending FlightAware ADS-B
Sat 07:22:36 PM 40.6550 -73.7470 209° Southwest 137 158 200 -900 Descending FlightAware ADS-B
Sat 07:23:00 PM 40.6420 -73.7580 213° Southwest 134 154 -500 Descending FlightAware ADS-B
Sat 07:23:18 PM 40.6340 -73.7640 210° Southwest 82 94  Level FlightAware ADS-B

Login

Don't have an account? Register now (free) for customized features, flight alerts, and more!